createdAt,value
2022-10-19T00:01:21.277Z,10.23
2022-10-19T00:03:51.802Z,10.16
2022-10-19T00:06:26.278Z,10.11
2022-10-19T00:09:05.205Z,10.05
2022-10-19T00:11:33.614Z,9.96
2022-10-19T00:14:04.366Z,9.93
2022-10-19T00:16:36.526Z,9.90
2022-10-19T00:19:08.337Z,9.93
2022-10-19T00:21:36.646Z,9.87
2022-10-19T00:24:04.365Z,9.89
2022-10-19T00:26:32.077Z,9.80
2022-10-19T00:28:59.806Z,9.82
2022-10-19T00:31:27.785Z,9.77
2022-10-19T00:33:57.970Z,9.72
2022-10-19T00:36:26.656Z,9.72
2022-10-19T00:38:57.967Z,9.64
2022-10-19T00:41:30.624Z,9.64
2022-10-19T00:44:01.934Z,9.62
2022-10-19T00:46:31.916Z,9.57
2022-10-19T00:49:09.992Z,9.53
2022-10-19T00:51:43.965Z,9.58
2022-10-19T00:54:15.339Z,9.63
2022-10-19T00:56:45.369Z,9.67
2022-10-19T00:59:16.112Z,9.72
2022-10-19T01:01:46.030Z,9.76
2022-10-19T01:04:14.838Z,9.74
2022-10-19T01:06:43.245Z,9.75
2022-10-19T01:09:10.905Z,9.81
2022-10-19T01:11:53.437Z,9.84
2022-10-19T01:14:42.801Z,9.90
2022-10-19T01:17:28.982Z,9.92
2022-10-19T01:20:38.448Z,9.89
2022-10-19T01:23:31.622Z,9.98
2022-10-19T01:26:20.418Z,9.98
2022-10-19T01:29:00.084Z,10.06
2022-10-19T01:32:01.308Z,10.09
2022-10-19T01:34:53.542Z,10.18
2022-10-19T01:37:39.433Z,10.23
2022-10-19T01:40:34.036Z,10.28
2022-10-19T01:43:27.273Z,10.31
2022-10-19T01:46:27.472Z,10.32
2022-10-19T01:49:04.459Z,10.27
2022-10-19T01:51:36.739Z,10.23
2022-10-19T01:54:07.881Z,10.19
2022-10-19T01:56:38.978Z,10.17
2022-10-19T01:59:10.391Z,10.23
2022-10-19T02:01:42.518Z,10.26
2022-10-19T02:04:17.080Z,10.30
2022-10-19T02:06:47.949Z,10.27
2022-10-19T02:09:18.213Z,10.28
2022-10-19T02:12:00.094Z,10.27
2022-10-19T02:14:35.889Z,10.27
2022-10-19T02:17:09.111Z,10.25
2022-10-19T02:19:39.376Z,10.30
2022-10-19T02:22:09.938Z,10.34
2022-10-19T02:24:37.425Z,10.36
2022-10-19T02:27:06.197Z,10.37
2022-10-19T02:29:35.533Z,10.40
2022-10-19T02:32:03.714Z,10.42
2022-10-19T02:34:31.458Z,10.47
2022-10-19T02:36:59.402Z,10.46
2022-10-19T02:39:26.929Z,10.47
2022-10-19T02:42:04.830Z,10.47
2022-10-19T02:45:00.353Z,10.44
2022-10-19T02:47:45.594Z,10.43
2022-10-19T02:50:13.408Z,10.44
2022-10-19T02:52:42.238Z,10.43
2022-10-19T02:55:13.525Z,10.45
2022-10-19T02:57:41.024Z,10.48
2022-10-19T03:00:10.474Z,10.48
2022-10-19T03:02:38.033Z,10.50
2022-10-19T03:05:06.133Z,10.46
2022-10-19T03:07:36.842Z,10.44
2022-10-19T03:10:04.733Z,10.42
2022-10-19T03:12:32.224Z,10.49
2022-10-19T03:15:02.214Z,10.60
2022-10-19T03:17:32.272Z,10.67
2022-10-19T03:20:00.066Z,10.74
2022-10-19T03:22:27.651Z,10.79
2022-10-19T03:24:57.518Z,10.84
2022-10-19T03:27:24.977Z,10.84
2022-10-19T03:29:52.478Z,10.85
2022-10-19T03:32:22.609Z,10.89
2022-10-19T03:34:50.092Z,10.89
2022-10-19T03:37:17.713Z,10.94
2022-10-19T03:39:45.195Z,11.00
2022-10-19T03:42:12.695Z,10.99
2022-10-19T03:44:40.172Z,11.02
2022-10-19T03:47:07.650Z,10.99
2022-10-19T03:49:38.050Z,10.98
2022-10-19T03:52:09.997Z,11.04
2022-10-19T03:54:37.509Z,11.12
2022-10-19T03:57:05.003Z,11.22
2022-10-19T03:59:34.627Z,11.54
2022-10-19T04:02:02.215Z,11.65
2022-10-19T04:04:29.741Z,11.88
2022-10-19T04:06:57.219Z,12.12
2022-10-19T04:09:24.887Z,12.23
2022-10-19T04:11:52.392Z,12.26
2022-10-19T04:14:32.024Z,12.31
2022-10-19T04:17:02.307Z,12.43
2022-10-19T04:19:29.943Z,12.58
2022-10-19T04:21:59.763Z,12.60
2022-10-19T04:24:29.529Z,12.61
2022-10-19T04:26:57.821Z,12.52
2022-10-19T04:29:29.746Z,12.42
2022-10-19T04:32:00.455Z,12.27
2022-10-19T04:34:34.218Z,12.14
2022-10-19T04:37:03.955Z,12.19
2022-10-19T04:39:32.468Z,12.22
2022-10-19T04:41:59.943Z,12.16
2022-10-19T04:44:27.445Z,12.11
2022-10-19T04:46:55.145Z,12.02
2022-10-19T04:49:24.833Z,12.00
2022-10-19T04:51:52.441Z,12.02
2022-10-19T04:54:23.365Z,12.02
2022-10-19T04:56:51.089Z,12.00
2022-10-19T04:59:21.097Z,12.04
2022-10-19T05:01:48.615Z,11.96
2022-10-19T05:04:16.256Z,11.87
2022-10-19T05:06:43.804Z,11.86
2022-10-19T05:09:13.702Z,11.81
2022-10-19T05:11:46.090Z,11.77
2022-10-19T05:14:13.587Z,11.68
2022-10-19T05:16:41.119Z,11.57
2022-10-19T05:19:08.598Z,11.49
2022-10-19T05:21:36.085Z,11.38
2022-10-19T05:24:03.909Z,11.26
2022-10-19T05:26:31.411Z,11.31
2022-10-19T05:29:04.358Z,11.31
2022-10-19T05:31:36.371Z,11.32
2022-10-19T05:34:04.979Z,11.39
2022-10-19T05:36:38.178Z,11.57
2022-10-19T05:39:13.881Z,11.88
2022-10-19T05:41:44.337Z,12.15
2022-10-19T05:44:16.542Z,12.43
2022-10-19T05:46:44.485Z,12.69
2022-10-19T05:49:13.415Z,12.75
2022-10-19T05:51:45.697Z,12.83
2022-10-19T05:54:14.416Z,13.07
2022-10-19T05:56:42.753Z,13.09
2022-10-19T05:59:14.820Z,13.12
2022-10-19T06:01:42.609Z,13.14
2022-10-19T06:04:10.938Z,13.18
2022-10-19T06:06:38.475Z,13.21
2022-10-19T06:09:06.185Z,13.25
2022-10-19T06:11:36.608Z,13.33
2022-10-19T06:14:08.237Z,13.37
2022-10-19T06:16:36.290Z,13.41
2022-10-19T06:19:04.762Z,13.44
2022-10-19T06:21:34.537Z,13.46
2022-10-19T06:24:05.767Z,13.56
2022-10-19T06:26:35.224Z,13.69
2022-10-19T06:29:03.754Z,13.71
2022-10-19T06:31:34.130Z,13.84
2022-10-19T06:34:02.123Z,13.84
2022-10-19T06:36:32.341Z,13.92
2022-10-19T06:39:01.951Z,13.94
2022-10-19T06:41:32.328Z,14.04
2022-10-19T06:44:02.367Z,14.15
2022-10-19T06:46:29.929Z,14.23
2022-10-19T06:48:59.302Z,14.34
2022-10-19T06:51:34.024Z,14.36
2022-10-19T06:54:04.210Z,14.55
2022-10-19T06:56:31.726Z,14.74
2022-10-19T06:59:02.153Z,14.90
2022-10-19T07:01:29.830Z,15.00
2022-10-19T07:03:57.374Z,15.12
2022-10-19T07:06:24.996Z,15.24
2022-10-19T07:08:53.292Z,15.29
2022-10-19T07:11:23.688Z,15.31
2022-10-19T07:13:53.257Z,15.39
2022-10-19T07:16:21.859Z,15.47
2022-10-19T07:18:51.788Z,15.62
2022-10-19T07:21:20.464Z,16.37
2022-10-19T07:23:49.188Z,18.10
2022-10-19T07:26:30.457Z,19.85
2022-10-19T07:28:58.947Z,21.42
2022-10-19T07:31:28.915Z,22.52
2022-10-19T07:34:04.743Z,22.89
2022-10-19T07:36:34.521Z,23.44
2022-10-19T07:39:05.345Z,23.95
2022-10-19T07:41:34.649Z,24.64
2022-10-19T07:44:02.664Z,24.09
2022-10-19T07:46:33.873Z,24.60
2022-10-19T07:49:05.642Z,25.45
2022-10-19T07:51:33.150Z,25.59
2022-10-19T07:54:00.844Z,25.86
2022-10-19T07:56:29.288Z,26.26
2022-10-19T07:58:58.490Z,26.08
2022-10-19T08:01:28.867Z,27.00
2022-10-19T08:06:48.119Z,27.49
2022-10-19T08:09:47.405Z,27.65
2022-10-19T08:12:07.040Z,28.07
2022-10-19T08:14:34.881Z,28.16
2022-10-19T08:17:04.748Z,28.47
2022-10-19T08:19:32.290Z,28.71
2022-10-19T08:21:59.751Z,28.20
2022-10-19T08:24:27.314Z,28.56
2022-10-19T08:26:54.791Z,29.25
2022-10-19T08:29:26.626Z,29.09
2022-10-19T08:31:58.730Z,28.87
2022-10-19T08:34:26.344Z,28.79
2022-10-19T08:36:53.880Z,28.13
2022-10-19T08:39:21.390Z,27.80
2022-10-19T08:42:18.004Z,27.41
2022-10-19T08:45:01.713Z,27.26
2022-10-19T08:47:38.870Z,28.09
2022-10-19T08:50:39.336Z,28.48
2022-10-19T08:53:13.676Z,27.91
2022-10-19T08:55:55.431Z,27.66
2022-10-19T08:58:38.120Z,27.08
2022-10-19T09:01:33.925Z,26.46
2022-10-19T09:04:27.064Z,26.61
2022-10-19T09:07:20.876Z,27.11
2022-10-19T09:10:04.676Z,27.43
2022-10-19T09:12:49.045Z,27.23
2022-10-19T09:15:21.518Z,27.31
2022-10-19T09:17:49.080Z,27.31
2022-10-19T09:20:27.619Z,26.99
2022-10-19T09:23:41.656Z,25.75
2022-10-19T09:26:17.636Z,25.91
2022-10-19T09:28:58.369Z,26.38
2022-10-19T09:31:34.943Z,26.33
2022-10-19T09:34:19.135Z,26.69
2022-10-19T09:36:52.605Z,27.03
2022-10-19T09:39:25.690Z,25.84
2022-10-19T09:42:06.487Z,26.53
2022-10-19T09:44:34.133Z,24.51
2022-10-19T09:47:16.784Z,23.78
2022-10-19T09:49:49.727Z,23.00
2022-10-19T09:52:32.186Z,22.92
2022-10-19T09:55:14.917Z,22.18
2022-10-19T09:58:00.058Z,21.88
2022-10-19T10:00:35.343Z,22.56
2022-10-19T10:03:03.335Z,24.34
2022-10-19T10:05:38.903Z,23.65
2022-10-19T10:08:18.672Z,25.11
2022-10-19T10:10:49.324Z,24.83
2022-10-19T10:13:22.790Z,23.72
2022-10-19T10:15:59.827Z,23.71
2022-10-19T10:18:30.290Z,22.87
2022-10-19T10:21:25.399Z,22.11
2022-10-19T10:24:01.690Z,21.90
2022-10-19T10:26:29.642Z,23.48
2022-10-19T10:29:00.636Z,22.32
2022-10-19T10:31:30.932Z,21.88
2022-10-19T10:34:12.153Z,21.58
2022-10-19T10:36:54.882Z,21.66
2022-10-19T10:39:24.820Z,23.17
2022-10-19T10:41:52.647Z,24.47
2022-10-19T10:44:30.866Z,25.31
2022-10-19T10:47:01.007Z,25.92
2022-10-19T10:49:37.408Z,26.54
2022-10-19T10:52:18.226Z,26.85
2022-10-19T10:55:16.528Z,27.11
2022-10-19T10:57:54.930Z,27.52
2022-10-19T11:00:25.034Z,27.80
2022-10-19T11:03:06.348Z,27.70
2022-10-19T11:05:59.719Z,27.59
2022-10-19T11:09:11.330Z,27.86
2022-10-19T11:11:46.996Z,28.11
2022-10-19T11:14:20.563Z,27.72
2022-10-19T11:16:51.395Z,27.78
2022-10-19T11:19:22.366Z,27.59
2022-10-19T11:22:21.258Z,27.57
2022-10-19T11:25:15.321Z,27.07
2022-10-19T11:28:13.699Z,27.01
2022-10-19T11:30:51.246Z,26.41
2022-10-19T11:33:48.116Z,26.48
2022-10-19T11:36:57.261Z,26.76
2022-10-19T11:39:30.845Z,26.43
2022-10-19T11:42:07.417Z,26.33
2022-10-19T11:45:04.099Z,26.26
2022-10-19T11:47:43.238Z,26.46
2022-10-19T11:50:46.603Z,26.52
2022-10-19T11:53:45.736Z,26.63
2022-10-19T11:56:44.740Z,26.46
2022-10-19T11:59:41.890Z,26.41
2022-10-19T12:02:40.564Z,25.85
2022-10-19T12:05:24.734Z,26.26
2022-10-19T12:08:16.252Z,25.47
2022-10-19T12:10:56.597Z,25.12
2022-10-19T12:13:41.693Z,25.44
2022-10-19T12:16:12.535Z,25.04
2022-10-19T12:18:47.224Z,24.78
2022-10-19T12:21:30.089Z,24.77
2022-10-19T12:24:03.234Z,23.97
2022-10-19T12:26:37.438Z,23.95
2022-10-19T12:29:11.367Z,24.04
2022-10-19T12:31:39.230Z,24.10
2022-10-19T12:34:37.926Z,24.60
2022-10-19T12:37:30.555Z,24.49
2022-10-19T12:40:00.799Z,24.88
2022-10-19T12:42:52.797Z,24.15
2022-10-19T12:45:25.360Z,24.22
2022-10-19T12:48:18.870Z,24.50
2022-10-19T12:50:49.173Z,24.22
2022-10-19T12:53:38.130Z,24.03
2022-10-19T12:56:18.332Z,23.83
2022-10-19T12:58:47.838Z,23.95
2022-10-19T13:01:23.393Z,23.51
2022-10-19T13:04:21.885Z,23.31
2022-10-19T13:06:54.555Z,22.85
2022-10-19T13:09:31.379Z,22.33
2022-10-19T13:12:17.658Z,22.41
2022-10-19T13:15:03.709Z,22.29
2022-10-19T13:17:37.209Z,21.42
2022-10-19T13:20:16.799Z,20.91
2022-10-19T13:22:52.309Z,20.25
2022-10-19T13:25:20.472Z,19.87
2022-10-19T13:27:49.630Z,19.54
2022-10-19T13:30:39.088Z,19.17
2022-10-19T13:33:25.382Z,18.99
2022-10-19T13:36:02.561Z,18.76
2022-10-19T13:38:37.167Z,18.64
2022-10-19T13:41:14.219Z,18.46
2022-10-19T13:44:14.485Z,18.27
2022-10-19T13:47:09.989Z,18.16
2022-10-19T13:50:03.490Z,18.12
2022-10-19T13:52:55.138Z,18.11
2022-10-19T13:55:31.313Z,18.02
2022-10-19T13:58:14.167Z,17.95
2022-10-19T14:01:14.347Z,17.88
2022-10-19T14:04:39.328Z,17.79
2022-10-19T14:07:15.155Z,17.74
2022-10-19T14:09:55.558Z,17.69
2022-10-19T14:12:28.310Z,17.58
2022-10-19T14:14:56.044Z,17.43
2022-10-19T14:17:27.960Z,17.38
2022-10-19T14:19:59.158Z,17.34
2022-10-19T14:22:36.918Z,17.19
2022-10-19T14:25:27.915Z,17.06
2022-10-19T14:28:03.046Z,16.96
2022-10-19T14:30:35.958Z,16.82
2022-10-19T14:33:14.446Z,16.71
2022-10-19T14:35:46.913Z,16.62
2022-10-19T14:38:43.372Z,16.50
2022-10-19T14:41:29.398Z,16.42
2022-10-19T14:43:57.794Z,16.36
2022-10-19T14:46:33.769Z,16.28
2022-10-19T14:49:12.762Z,16.21
2022-10-19T14:51:52.740Z,16.11
2022-10-19T14:54:29.522Z,16.01
2022-10-19T14:57:05.289Z,15.94
2022-10-19T14:59:46.417Z,15.86
2022-10-19T15:02:23.004Z,15.78
2022-10-19T15:04:51.791Z,15.70
2022-10-19T15:07:27.701Z,15.60
2022-10-19T15:10:02.032Z,15.50
2022-10-19T15:12:36.421Z,15.40
2022-10-19T15:15:15.387Z,15.33
2022-10-19T15:18:01.387Z,15.21
2022-10-19T15:20:44.286Z,15.10
2022-10-19T15:23:47.296Z,15.05
2022-10-19T15:26:17.863Z,14.95
2022-10-19T15:28:45.714Z,14.86
2022-10-19T15:31:19.837Z,14.85
2022-10-19T15:33:53.309Z,14.78
2022-10-19T15:36:22.499Z,14.69
2022-10-19T15:39:11.366Z,14.64
2022-10-19T15:41:46.641Z,14.56
2022-10-19T15:44:41.869Z,14.50
2022-10-19T15:47:19.395Z,14.43
2022-10-19T15:49:46.974Z,14.34
2022-10-19T15:52:21.406Z,14.22
2022-10-19T15:54:50.273Z,14.11
2022-10-19T15:57:28.743Z,14.04
2022-10-19T15:59:58.149Z,14.05
2022-10-19T16:02:26.114Z,13.98
2022-10-19T16:04:55.339Z,13.88
2022-10-19T16:07:28.843Z,13.74
2022-10-19T16:09:59.163Z,13.62
2022-10-19T16:12:29.662Z,13.51
2022-10-19T16:14:57.366Z,13.44
2022-10-19T16:17:27.543Z,13.42
2022-10-19T16:19:55.191Z,13.46
2022-10-19T16:22:22.693Z,13.49
2022-10-19T16:24:50.205Z,13.55
2022-10-19T16:27:17.711Z,13.54
2022-10-19T16:29:45.666Z,13.51
2022-10-19T16:32:16.822Z,13.53
2022-10-19T16:34:44.284Z,13.50
2022-10-19T16:37:11.934Z,13.49
2022-10-19T16:39:39.560Z,13.51
2022-10-19T16:42:07.090Z,13.54
2022-10-19T16:44:34.572Z,13.51
2022-10-19T16:47:02.115Z,13.54
2022-10-19T16:49:32.387Z,13.51
2022-10-19T16:52:01.695Z,13.50
2022-10-19T16:54:30.505Z,13.44
2022-10-19T16:56:58.939Z,13.40
2022-10-19T16:59:26.457Z,13.36
2022-10-19T17:01:54.184Z,13.35
2022-10-19T17:04:26.016Z,13.32
2022-10-19T17:06:53.493Z,13.30
2022-10-19T17:09:40.768Z,13.30
2022-10-19T17:12:08.995Z,13.24
2022-10-19T17:14:37.363Z,13.22
2022-10-19T17:17:04.942Z,13.19
2022-10-19T17:19:32.711Z,13.19
2022-10-19T17:22:05.696Z,13.20
2022-10-19T17:24:33.499Z,13.16
2022-10-19T17:27:03.127Z,13.11
2022-10-19T17:29:31.169Z,13.08
2022-10-19T17:32:01.568Z,13.03
2022-10-19T17:34:29.117Z,12.96
2022-10-19T17:36:56.758Z,12.94
2022-10-19T17:39:29.128Z,12.94
2022-10-19T17:42:02.458Z,12.88
2022-10-19T17:44:32.531Z,12.87
2022-10-19T17:47:01.425Z,12.81
2022-10-19T17:49:29.792Z,12.78
2022-10-19T17:51:57.488Z,12.81
2022-10-19T17:54:25.734Z,12.77
2022-10-19T17:56:53.226Z,12.80
2022-10-19T17:59:30.265Z,12.75
2022-10-19T18:02:03.385Z,12.73
2022-10-19T18:04:30.934Z,12.68
2022-10-19T18:06:58.623Z,12.62
2022-10-19T18:09:26.121Z,12.56
2022-10-19T18:11:53.614Z,12.52
2022-10-19T18:14:21.097Z,12.48
2022-10-19T18:16:48.862Z,12.37
2022-10-19T18:19:18.947Z,12.29
2022-10-19T18:21:47.783Z,12.20
2022-10-19T18:24:21.314Z,12.20
2022-10-19T18:26:54.197Z,12.16
2022-10-19T18:29:24.121Z,12.11
2022-10-19T18:31:52.608Z,12.02
2022-10-19T18:34:26.227Z,11.96
2022-10-19T18:36:55.051Z,11.87
2022-10-19T18:39:22.934Z,11.85
2022-10-19T18:41:56.377Z,11.81
2022-10-19T18:44:27.114Z,11.71
2022-10-19T18:46:56.383Z,11.66
2022-10-19T18:49:24.048Z,11.57
2022-10-19T18:51:55.096Z,11.45
2022-10-19T18:54:23.717Z,11.44
2022-10-19T18:56:51.221Z,11.45
2022-10-19T18:59:19.057Z,11.45
2022-10-19T19:01:46.730Z,11.41
2022-10-19T19:04:15.027Z,11.35
2022-10-19T19:06:42.668Z,11.30
2022-10-19T19:09:14.592Z,11.26
2022-10-19T19:11:42.198Z,11.18
2022-10-19T19:14:20.951Z,11.06
2022-10-19T19:16:48.537Z,10.95
2022-10-19T19:19:17.956Z,10.87
2022-10-19T19:21:46.286Z,10.76
2022-10-19T19:24:21.850Z,10.67
2022-10-19T19:26:54.775Z,10.58
2022-10-19T19:29:23.030Z,10.48
2022-10-19T19:31:51.390Z,10.45
2022-10-19T19:34:20.677Z,10.41
2022-10-19T19:36:48.853Z,10.41
2022-10-19T19:39:18.715Z,10.37
2022-10-19T19:41:46.369Z,10.35
2022-10-19T19:44:13.898Z,10.30
2022-10-19T19:46:41.380Z,10.29
2022-10-19T19:49:11.538Z,10.25
2022-10-19T19:51:41.365Z,10.21
2022-10-19T19:54:08.880Z,10.16
2022-10-19T19:56:37.324Z,10.09
2022-10-19T19:59:04.863Z,10.04
2022-10-19T20:01:36.593Z,9.99
2022-10-19T20:04:05.421Z,9.94
2022-10-19T20:06:35.453Z,9.87
2022-10-19T20:09:03.025Z,9.87
2022-10-19T20:11:31.254Z,9.89
2022-10-19T20:13:58.787Z,9.88
2022-10-19T20:16:29.437Z,9.82
2022-10-19T20:19:14.603Z,9.77
2022-10-19T20:21:42.716Z,9.72
2022-10-19T20:24:10.945Z,9.69
2022-10-19T20:26:38.501Z,9.63
2022-10-19T20:29:08.125Z,9.57
2022-10-19T20:31:39.539Z,9.50
2022-10-19T20:34:13.675Z,9.45
2022-10-19T20:36:41.331Z,9.42
2022-10-19T20:39:08.928Z,9.39
2022-10-19T20:41:36.817Z,9.35
2022-10-19T20:44:05.528Z,9.38
2022-10-19T20:46:37.110Z,9.47
2022-10-19T20:49:05.187Z,9.45
2022-10-19T20:51:36.503Z,9.53
2022-10-19T20:54:05.584Z,9.63
2022-10-19T20:56:36.443Z,9.70
2022-10-19T20:59:07.918Z,9.84
2022-10-19T21:01:37.938Z,9.87
2022-10-19T21:04:10.076Z,9.92
2022-10-19T21:06:46.227Z,10.01
2022-10-19T21:09:16.306Z,10.00
2022-10-19T21:11:45.624Z,9.98
2022-10-19T21:14:20.272Z,9.97
2022-10-19T21:16:50.103Z,10.00
2022-10-19T21:19:20.202Z,9.97
2022-10-19T21:21:50.780Z,10.04
2022-10-19T21:24:24.505Z,9.96
2022-10-19T21:29:28.225Z,9.85
2022-10-19T21:31:56.168Z,9.77
2022-10-19T21:34:26.174Z,9.75
2022-10-19T21:36:54.617Z,9.72
2022-10-19T21:39:26.466Z,9.69
2022-10-19T21:41:54.020Z,9.70
2022-10-19T21:44:23.265Z,9.64
2022-10-19T21:46:53.264Z,9.71
2022-10-19T21:49:20.952Z,9.68
2022-10-19T21:51:55.713Z,9.60
2022-10-19T21:54:27.243Z,9.58
2022-10-19T21:56:55.774Z,9.52
2022-10-19T21:59:23.486Z,9.52
2022-10-19T22:01:51.015Z,9.53
2022-10-19T22:04:19.329Z,9.51
2022-10-19T22:06:47.639Z,9.59
2022-10-19T22:09:20.408Z,9.63
2022-10-19T22:11:48.297Z,9.64
2022-10-19T22:14:17.759Z,9.62
2022-10-19T22:16:47.670Z,9.62
2022-10-19T22:19:15.466Z,9.61
2022-10-19T22:21:42.974Z,9.57
2022-10-19T22:24:16.320Z,9.56
2022-10-19T22:26:46.853Z,9.53
2022-10-19T22:29:17.650Z,9.54
2022-10-19T22:31:45.690Z,9.52
2022-10-19T22:34:16.163Z,9.49
2022-10-19T22:36:44.564Z,9.45
2022-10-19T22:39:12.655Z,9.43
2022-10-19T22:42:35.611Z,9.36
2022-10-19T22:45:03.331Z,9.27
2022-10-19T22:47:33.362Z,9.22
2022-10-19T22:50:00.947Z,9.17
2022-10-19T22:52:28.503Z,9.10
2022-10-19T22:54:56.082Z,9.00
2022-10-19T22:57:25.990Z,8.93
2022-10-19T22:59:53.546Z,8.84
2022-10-19T23:02:21.106Z,8.71
2022-10-19T23:04:48.675Z,8.63
2022-10-19T23:07:16.584Z,8.59
2022-10-19T23:09:46.380Z,8.55
2022-10-19T23:12:13.950Z,8.48
2022-10-19T23:14:41.549Z,8.40
2022-10-19T23:17:09.077Z,8.33
2022-10-19T23:19:36.630Z,8.26
2022-10-19T23:22:04.111Z,8.16
2022-10-19T23:24:31.658Z,8.10
2022-10-19T23:26:59.197Z,8.04
2022-10-19T23:29:28.984Z,7.96
2022-10-19T23:31:56.547Z,7.91
2022-10-19T23:34:24.160Z,7.85
2022-10-19T23:36:53.156Z,7.83
2022-10-19T23:39:21.818Z,7.72
2022-10-19T23:41:49.451Z,7.62
2022-10-19T23:44:18.069Z,7.53
2022-10-19T23:46:47.943Z,7.47
2022-10-19T23:49:17.939Z,7.41
2022-10-19T23:51:45.419Z,7.33
2022-10-19T23:54:14.190Z,7.26
2022-10-19T23:56:44.057Z,7.21
2022-10-19T23:59:11.783Z,7.19
